sensor_id;sensor_type;location;lat;lon;timestamp;temperature;humidity
42617;DHT22;28250;52.320;0.360;2023-05-07T00:00:12;13.40;99.90
42617;DHT22;28250;52.320;0.360;2023-05-07T00:02:41;13.40;99.90
42617;DHT22;28250;52.320;0.360;2023-05-07T00:05:07;13.30;99.90
42617;DHT22;28250;52.320;0.360;2023-05-07T00:07:34;13.30;99.90
42617;DHT22;28250;52.320;0.360;2023-05-07T00:10:00;13.40;99.90
42617;DHT22;28250;52.320;0.360;2023-05-07T00:12:26;13.30;99.90
42617;DHT22;28250;52.320;0.360;2023-05-07T00:14:51;13.30;99.90
42617;DHT22;28250;52.320;0.360;2023-05-07T00:17:17;13.30;99.90
42617;DHT22;28250;52.320;0.360;2023-05-07T00:19:43;13.30;99.90
42617;DHT22;28250;52.320;0.360;2023-05-07T00:22:10;13.30;99.90
42617;DHT22;28250;52.320;0.360;2023-05-07T00:24:36;13.30;99.90
42617;DHT22;28250;52.320;0.360;2023-05-07T00:27:02;13.30;99.90
42617;DHT22;28250;52.320;0.360;2023-05-07T00:29:28;13.40;99.90
42617;DHT22;28250;52.320;0.360;2023-05-07T00:31:54;13.30;99.90
42617;DHT22;28250;52.320;0.360;2023-05-07T00:34:20;13.20;99.90
42617;DHT22;28250;52.320;0.360;2023-05-07T00:36:46;13.30;99.90
42617;DHT22;28250;52.320;0.360;2023-05-07T00:39:12;13.30;99.90
42617;DHT22;28250;52.320;0.360;2023-05-07T00:41:38;13.20;99.90
42617;DHT22;28250;52.320;0.360;2023-05-07T00:44:04;13.20;99.90
42617;DHT22;28250;52.320;0.360;2023-05-07T00:46:31;13.20;99.90
42617;DHT22;28250;52.320;0.360;2023-05-07T00:48:58;13.20;99.90
42617;DHT22;28250;52.320;0.360;2023-05-07T00:51:26;13.20;99.90
42617;DHT22;28250;52.320;0.360;2023-05-07T00:53:55;13.20;99.90
42617;DHT22;28250;52.320;0.360;2023-05-07T00:56:22;13.20;99.90
42617;DHT22;28250;52.320;0.360;2023-05-07T00:58:49;13.20;99.90
42617;DHT22;28250;52.320;0.360;2023-05-07T01:01:15;13.20;99.90
42617;DHT22;28250;52.320;0.360;2023-05-07T01:03:42;13.10;99.90
42617;DHT22;28250;52.320;0.360;2023-05-07T01:06:09;13.10;99.90
42617;DHT22;28250;52.320;0.360;2023-05-07T01:08:39;13.10;99.90
42617;DHT22;28250;52.320;0.360;2023-05-07T01:11:07;13.20;99.90
42617;DHT22;28250;52.320;0.360;2023-05-07T01:13:35;13.20;99.90
42617;DHT22;28250;52.320;0.360;2023-05-07T01:16:03;13.20;99.90
42617;DHT22;28250;52.320;0.360;2023-05-07T01:18:29;13.20;99.90
42617;DHT22;28250;52.320;0.360;2023-05-07T01:20:58;13.20;99.90
42617;DHT22;28250;52.320;0.360;2023-05-07T01:23:27;13.10;99.90
42617;DHT22;28250;52.320;0.360;2023-05-07T01:25:54;13.10;99.90
42617;DHT22;28250;52.320;0.360;2023-05-07T01:28:22;13.00;99.90
42617;DHT22;28250;52.320;0.360;2023-05-07T01:30:55;13.00;99.90
42617;DHT22;28250;52.320;0.360;2023-05-07T01:33:26;13.00;99.90
42617;DHT22;28250;52.320;0.360;2023-05-07T01:35:57;13.00;99.90
42617;DHT22;28250;52.320;0.360;2023-05-07T01:38:27;13.10;99.90
42617;DHT22;28250;52.320;0.360;2023-05-07T01:40:54;13.10;99.90
42617;DHT22;28250;52.320;0.360;2023-05-07T01:43:21;13.10;99.90
42617;DHT22;28250;52.320;0.360;2023-05-07T01:45:47;13.00;99.90
42617;DHT22;28250;52.320;0.360;2023-05-07T01:48:15;13.00;99.90
42617;DHT22;28250;52.320;0.360;2023-05-07T01:50:44;13.00;99.90
42617;DHT22;28250;52.320;0.360;2023-05-07T01:53:11;13.00;99.90
42617;DHT22;28250;52.320;0.360;2023-05-07T01:55:36;13.00;99.90
42617;DHT22;28250;52.320;0.360;2023-05-07T01:58:03;13.00;99.90
42617;DHT22;28250;52.320;0.360;2023-05-07T02:00:31;13.10;99.90
42617;DHT22;28250;52.320;0.360;2023-05-07T02:02:57;13.00;99.90
42617;DHT22;28250;52.320;0.360;2023-05-07T02:05:32;13.00;99.90
42617;DHT22;28250;52.320;0.360;2023-05-07T02:08:05;13.00;99.90
42617;DHT22;28250;52.320;0.360;2023-05-07T02:10:31;13.00;99.90
42617;DHT22;28250;52.320;0.360;2023-05-07T02:12:58;13.00;99.90
42617;DHT22;28250;52.320;0.360;2023-05-07T02:15:27;13.00;99.90
42617;DHT22;28250;52.320;0.360;2023-05-07T02:18:07;12.90;99.90
42617;DHT22;28250;52.320;0.360;2023-05-07T02:20:34;13.00;99.90
42617;DHT22;28250;52.320;0.360;2023-05-07T02:23:01;13.00;99.90
42617;DHT22;28250;52.320;0.360;2023-05-07T02:25:29;13.00;99.90
42617;DHT22;28250;52.320;0.360;2023-05-07T02:27:55;13.00;99.90
42617;DHT22;28250;52.320;0.360;2023-05-07T02:30:28;13.00;99.90
42617;DHT22;28250;52.320;0.360;2023-05-07T02:32:56;13.00;99.90
42617;DHT22;28250;52.320;0.360;2023-05-07T02:35:27;13.10;99.90
42617;DHT22;28250;52.320;0.360;2023-05-07T02:37:53;13.00;99.90
42617;DHT22;28250;52.320;0.360;2023-05-07T02:40:19;13.00;99.90
42617;DHT22;28250;52.320;0.360;2023-05-07T02:42:46;12.90;99.90
42617;DHT22;28250;52.320;0.360;2023-05-07T02:45:12;12.90;99.90
42617;DHT22;28250;52.320;0.360;2023-05-07T02:47:38;12.90;99.90
42617;DHT22;28250;52.320;0.360;2023-05-07T02:50:05;12.90;99.90
42617;DHT22;28250;52.320;0.360;2023-05-07T02:52:31;12.90;99.90
42617;DHT22;28250;52.320;0.360;2023-05-07T02:54:58;12.80;99.90
42617;DHT22;28250;52.320;0.360;2023-05-07T02:57:23;12.80;99.90
42617;DHT22;28250;52.320;0.360;2023-05-07T02:59:49;12.80;99.90
42617;DHT22;28250;52.320;0.360;2023-05-07T03:02:17;12.80;99.90
42617;DHT22;28250;52.320;0.360;2023-05-07T03:04:43;12.70;99.90
42617;DHT22;28250;52.320;0.360;2023-05-07T03:07:09;12.70;99.90
42617;DHT22;28250;52.320;0.360;2023-05-07T03:09:35;12.70;99.90
42617;DHT22;28250;52.320;0.360;2023-05-07T03:12:02;12.60;99.90
42617;DHT22;28250;52.320;0.360;2023-05-07T03:14:28;12.60;99.90
42617;DHT22;28250;52.320;0.360;2023-05-07T03:16:54;12.60;99.90
42617;DHT22;28250;52.320;0.360;2023-05-07T03:19:20;12.60;99.90
42617;DHT22;28250;52.320;0.360;2023-05-07T03:21:46;12.50;99.90
42617;DHT22;28250;52.320;0.360;2023-05-07T03:24:12;12.50;99.90
42617;DHT22;28250;52.320;0.360;2023-05-07T03:26:38;12.50;99.90
42617;DHT22;28250;52.320;0.360;2023-05-07T03:29:05;12.50;99.90
42617;DHT22;28250;52.320;0.360;2023-05-07T03:31:31;12.50;99.90
42617;DHT22;28250;52.320;0.360;2023-05-07T03:33:58;12.40;99.90
42617;DHT22;28250;52.320;0.360;2023-05-07T03:36:25;12.40;99.90
42617;DHT22;28250;52.320;0.360;2023-05-07T03:38:53;12.40;99.90
42617;DHT22;28250;52.320;0.360;2023-05-07T03:41:22;12.50;99.90
42617;DHT22;28250;52.320;0.360;2023-05-07T03:43:48;12.40;99.90
42617;DHT22;28250;52.320;0.360;2023-05-07T03:46:14;12.40;99.90
42617;DHT22;28250;52.320;0.360;2023-05-07T03:48:41;12.40;99.90
42617;DHT22;28250;52.320;0.360;2023-05-07T03:51:08;12.40;99.90
42617;DHT22;28250;52.320;0.360;2023-05-07T03:53:34;12.40;99.90
42617;DHT22;28250;52.320;0.360;2023-05-07T03:56:00;12.40;99.90
42617;DHT22;28250;52.320;0.360;2023-05-07T03:58:29;12.40;99.90
42617;DHT22;28250;52.320;0.360;2023-05-07T04:00:59;12.40;99.90
42617;DHT22;28250;52.320;0.360;2023-05-07T04:03:27;12.40;99.90
42617;DHT22;28250;52.320;0.360;2023-05-07T04:05:56;12.40;99.90
42617;DHT22;28250;52.320;0.360;2023-05-07T04:08:22;12.40;99.90
42617;DHT22;28250;52.320;0.360;2023-05-07T04:10:56;12.40;99.90
42617;DHT22;28250;52.320;0.360;2023-05-07T04:13:25;12.30;99.90
42617;DHT22;28250;52.320;0.360;2023-05-07T04:15:52;12.30;99.90
42617;DHT22;28250;52.320;0.360;2023-05-07T04:18:19;12.30;99.90
42617;DHT22;28250;52.320;0.360;2023-05-07T04:20:47;12.40;99.90
42617;DHT22;28250;52.320;0.360;2023-05-07T04:23:15;12.30;99.90
42617;DHT22;28250;52.320;0.360;2023-05-07T04:25:41;12.40;99.90
42617;DHT22;28250;52.320;0.360;2023-05-07T04:28:15;12.30;99.90
42617;DHT22;28250;52.320;0.360;2023-05-07T04:30:42;12.30;99.90
42617;DHT22;28250;52.320;0.360;2023-05-07T04:33:09;12.30;99.90
42617;DHT22;28250;52.320;0.360;2023-05-07T04:35:37;12.40;99.90
42617;DHT22;28250;52.320;0.360;2023-05-07T04:38:04;12.30;99.90
42617;DHT22;28250;52.320;0.360;2023-05-07T04:40:31;12.30;99.90
42617;DHT22;28250;52.320;0.360;2023-05-07T04:42:58;12.30;99.90
42617;DHT22;28250;52.320;0.360;2023-05-07T04:45:24;12.30;99.90
42617;DHT22;28250;52.320;0.360;2023-05-07T04:47:52;12.20;99.90
42617;DHT22;28250;52.320;0.360;2023-05-07T04:50:18;12.30;99.90
42617;DHT22;28250;52.320;0.360;2023-05-07T04:52:46;12.30;99.90
42617;DHT22;28250;52.320;0.360;2023-05-07T04:55:13;12.40;99.90
42617;DHT22;28250;52.320;0.360;2023-05-07T04:57:40;12.40;99.90
42617;DHT22;28250;52.320;0.360;2023-05-07T05:00:08;12.40;99.90
42617;DHT22;28250;52.320;0.360;2023-05-07T05:02:36;12.50;99.90
42617;DHT22;28250;52.320;0.360;2023-05-07T05:05:03;12.50;99.90
42617;DHT22;28250;52.320;0.360;2023-05-07T05:07:29;12.50;99.90
42617;DHT22;28250;52.320;0.360;2023-05-07T05:09:56;12.50;99.90
42617;DHT22;28250;52.320;0.360;2023-05-07T05:12:24;12.50;99.90
42617;DHT22;28250;52.320;0.360;2023-05-07T05:14:50;12.50;99.90
42617;DHT22;28250;52.320;0.360;2023-05-07T05:17:16;12.60;99.90
42617;DHT22;28250;52.320;0.360;2023-05-07T05:19:42;12.60;99.90
42617;DHT22;28250;52.320;0.360;2023-05-07T05:22:08;12.60;99.90
42617;DHT22;28250;52.320;0.360;2023-05-07T05:24:34;12.60;99.90
42617;DHT22;28250;52.320;0.360;2023-05-07T05:27:01;12.60;99.90
42617;DHT22;28250;52.320;0.360;2023-05-07T05:29:29;12.60;99.90
42617;DHT22;28250;52.320;0.360;2023-05-07T05:31:57;12.60;99.90
42617;DHT22;28250;52.320;0.360;2023-05-07T05:34:24;12.70;99.90
42617;DHT22;28250;52.320;0.360;2023-05-07T05:36:50;12.60;99.90
42617;DHT22;28250;52.320;0.360;2023-05-07T05:39:17;12.70;99.90
42617;DHT22;28250;52.320;0.360;2023-05-07T05:41:44;12.70;99.90
42617;DHT22;28250;52.320;0.360;2023-05-07T05:44:12;12.80;99.90
42617;DHT22;28250;52.320;0.360;2023-05-07T05:46:39;12.90;99.90
42617;DHT22;28250;52.320;0.360;2023-05-07T05:49:06;12.90;99.90
42617;DHT22;28250;52.320;0.360;2023-05-07T05:51:32;13.00;99.90
42617;DHT22;28250;52.320;0.360;2023-05-07T05:53:58;13.10;99.90
42617;DHT22;28250;52.320;0.360;2023-05-07T05:56:24;13.20;99.90
42617;DHT22;28250;52.320;0.360;2023-05-07T05:58:51;13.20;99.90
42617;DHT22;28250;52.320;0.360;2023-05-07T06:01:18;13.40;99.90
42617;DHT22;28250;52.320;0.360;2023-05-07T06:03:45;13.40;99.90
42617;DHT22;28250;52.320;0.360;2023-05-07T06:06:13;13.50;99.90
42617;DHT22;28250;52.320;0.360;2023-05-07T06:08:41;13.50;99.90
42617;DHT22;28250;52.320;0.360;2023-05-07T06:11:08;13.70;99.90
42617;DHT22;28250;52.320;0.360;2023-05-07T06:13:37;13.80;99.90
42617;DHT22;28250;52.320;0.360;2023-05-07T06:16:03;14.20;99.90
42617;DHT22;28250;52.320;0.360;2023-05-07T06:18:30;15.90;99.90
42617;DHT22;28250;52.320;0.360;2023-05-07T06:20:56;17.30;99.90
42617;DHT22;28250;52.320;0.360;2023-05-07T06:23:25;16.50;99.90
42617;DHT22;28250;52.320;0.360;2023-05-07T06:25:51;15.80;99.90
42617;DHT22;28250;52.320;0.360;2023-05-07T06:28:21;15.10;99.90
42617;DHT22;28250;52.320;0.360;2023-05-07T06:30:47;15.50;99.90
42617;DHT22;28250;52.320;0.360;2023-05-07T06:33:16;15.10;99.90
42617;DHT22;28250;52.320;0.360;2023-05-07T06:35:42;14.90;99.90
42617;DHT22;28250;52.320;0.360;2023-05-07T06:38:08;14.80;99.90
42617;DHT22;28250;52.320;0.360;2023-05-07T06:40:35;14.80;99.90
42617;DHT22;28250;52.320;0.360;2023-05-07T06:43:01;14.70;99.90
42617;DHT22;28250;52.320;0.360;2023-05-07T06:45:34;14.60;99.90
42617;DHT22;28250;52.320;0.360;2023-05-07T06:48:01;14.50;99.90
42617;DHT22;28250;52.320;0.360;2023-05-07T06:50:30;14.50;99.90
42617;DHT22;28250;52.320;0.360;2023-05-07T06:52:57;14.50;99.90
42617;DHT22;28250;52.320;0.360;2023-05-07T06:55:23;14.60;99.90
42617;DHT22;28250;52.320;0.360;2023-05-07T06:57:49;14.50;99.90
42617;DHT22;28250;52.320;0.360;2023-05-07T07:00:17;14.40;99.90
42617;DHT22;28250;52.320;0.360;2023-05-07T07:02:49;14.50;99.90
42617;DHT22;28250;52.320;0.360;2023-05-07T07:05:18;14.50;99.90
42617;DHT22;28250;52.320;0.360;2023-05-07T07:07:44;14.60;99.90
42617;DHT22;28250;52.320;0.360;2023-05-07T07:10:21;14.80;99.90
42617;DHT22;28250;52.320;0.360;2023-05-07T07:12:49;14.90;99.90
42617;DHT22;28250;52.320;0.360;2023-05-07T07:15:16;15.10;99.90
42617;DHT22;28250;52.320;0.360;2023-05-07T07:17:42;15.20;99.90
42617;DHT22;28250;52.320;0.360;2023-05-07T07:20:09;15.20;99.90
42617;DHT22;28250;52.320;0.360;2023-05-07T07:22:35;15.10;99.90
42617;DHT22;28250;52.320;0.360;2023-05-07T07:25:02;15.10;99.90
42617;DHT22;28250;52.320;0.360;2023-05-07T07:27:28;15.20;99.90
42617;DHT22;28250;52.320;0.360;2023-05-07T07:29:54;15.40;99.90
42617;DHT22;28250;52.320;0.360;2023-05-07T07:32:20;15.60;99.90
42617;DHT22;28250;52.320;0.360;2023-05-07T07:34:46;15.80;99.90
42617;DHT22;28250;52.320;0.360;2023-05-07T07:37:13;15.70;99.90
42617;DHT22;28250;52.320;0.360;2023-05-07T07:39:39;15.70;99.90
42617;DHT22;28250;52.320;0.360;2023-05-07T07:42:07;15.70;99.90
42617;DHT22;28250;52.320;0.360;2023-05-07T07:44:33;15.80;99.90
42617;DHT22;28250;52.320;0.360;2023-05-07T07:47:04;15.70;99.90
42617;DHT22;28250;52.320;0.360;2023-05-07T07:49:31;16.10;99.90
42617;DHT22;28250;52.320;0.360;2023-05-07T07:52:01;16.30;99.90
42617;DHT22;28250;52.320;0.360;2023-05-07T07:54:29;16.40;99.90
42617;DHT22;28250;52.320;0.360;2023-05-07T07:56:55;16.30;99.90
42617;DHT22;28250;52.320;0.360;2023-05-07T07:59:22;16.50;99.90
42617;DHT22;28250;52.320;0.360;2023-05-07T08:01:49;16.60;99.90
42617;DHT22;28250;52.320;0.360;2023-05-07T08:04:17;16.80;99.90
42617;DHT22;28250;52.320;0.360;2023-05-07T08:06:44;16.70;99.90
42617;DHT22;28250;52.320;0.360;2023-05-07T08:09:10;16.60;99.90
42617;DHT22;28250;52.320;0.360;2023-05-07T08:11:39;16.40;99.90
42617;DHT22;28250;52.320;0.360;2023-05-07T08:14:05;16.40;99.90
42617;DHT22;28250;52.320;0.360;2023-05-07T08:16:31;16.30;99.90
42617;DHT22;28250;52.320;0.360;2023-05-07T08:18:59;16.10;99.90
42617;DHT22;28250;52.320;0.360;2023-05-07T08:21:25;16.30;99.90
42617;DHT22;28250;52.320;0.360;2023-05-07T08:23:52;16.60;99.90
42617;DHT22;28250;52.320;0.360;2023-05-07T08:26:18;16.60;99.90
42617;DHT22;28250;52.320;0.360;2023-05-07T08:28:44;16.70;99.90
42617;DHT22;28250;52.320;0.360;2023-05-07T08:31:10;17.00;99.90
42617;DHT22;28250;52.320;0.360;2023-05-07T08:33:39;16.80;99.90
42617;DHT22;28250;52.320;0.360;2023-05-07T08:36:05;16.70;99.90
42617;DHT22;28250;52.320;0.360;2023-05-07T08:38:31;17.10;99.90
42617;DHT22;28250;52.320;0.360;2023-05-07T08:40:58;17.60;99.90
42617;DHT22;28250;52.320;0.360;2023-05-07T08:43:26;17.50;99.90
42617;DHT22;28250;52.320;0.360;2023-05-07T08:45:54;17.10;99.90
42617;DHT22;28250;52.320;0.360;2023-05-07T08:48:25;17.30;99.90
42617;DHT22;28250;52.320;0.360;2023-05-07T08:51:03;17.50;99.90
42617;DHT22;28250;52.320;0.360;2023-05-07T08:53:30;17.10;99.90
42617;DHT22;28250;52.320;0.360;2023-05-07T08:55:56;17.00;99.90
42617;DHT22;28250;52.320;0.360;2023-05-07T08:58:23;17.20;99.90
42617;DHT22;28250;52.320;0.360;2023-05-07T09:00:50;17.30;99.90
42617;DHT22;28250;52.320;0.360;2023-05-07T09:03:17;17.70;99.90
42617;DHT22;28250;52.320;0.360;2023-05-07T09:05:47;17.90;99.90
42617;DHT22;28250;52.320;0.360;2023-05-07T09:08:15;18.20;99.90
42617;DHT22;28250;52.320;0.360;2023-05-07T09:10:42;18.20;99.90
42617;DHT22;28250;52.320;0.360;2023-05-07T09:13:09;18.20;99.90
42617;DHT22;28250;52.320;0.360;2023-05-07T09:15:38;18.30;99.90
42617;DHT22;28250;52.320;0.360;2023-05-07T09:18:05;18.30;99.90
42617;DHT22;28250;52.320;0.360;2023-05-07T09:20:33;18.20;99.90
42617;DHT22;28250;52.320;0.360;2023-05-07T09:23:01;18.40;99.90
42617;DHT22;28250;52.320;0.360;2023-05-07T09:25:29;18.50;99.90
42617;DHT22;28250;52.320;0.360;2023-05-07T09:27:57;18.50;99.90
42617;DHT22;28250;52.320;0.360;2023-05-07T09:30:27;18.70;99.90
42617;DHT22;28250;52.320;0.360;2023-05-07T09:33:00;18.60;99.90
42617;DHT22;28250;52.320;0.360;2023-05-07T09:35:30;18.40;99.90
42617;DHT22;28250;52.320;0.360;2023-05-07T09:38:01;18.00;99.90
42617;DHT22;28250;52.320;0.360;2023-05-07T09:40:30;18.20;99.90
42617;DHT22;28250;52.320;0.360;2023-05-07T09:43:10;18.30;99.90
42617;DHT22;28250;52.320;0.360;2023-05-07T09:45:41;18.40;99.90
42617;DHT22;28250;52.320;0.360;2023-05-07T09:48:07;18.50;99.90
42617;DHT22;28250;52.320;0.360;2023-05-07T09:50:48;18.70;99.90
42617;DHT22;28250;52.320;0.360;2023-05-07T09:53:17;18.90;99.90
42617;DHT22;28250;52.320;0.360;2023-05-07T09:55:45;18.90;99.90
42617;DHT22;28250;52.320;0.360;2023-05-07T09:58:12;18.90;99.90
42617;DHT22;28250;52.320;0.360;2023-05-07T10:00:41;18.90;99.90
42617;DHT22;28250;52.320;0.360;2023-05-07T10:03:11;18.70;99.90
42617;DHT22;28250;52.320;0.360;2023-05-07T10:05:50;18.90;99.90
42617;DHT22;28250;52.320;0.360;2023-05-07T10:08:19;19.20;99.90
42617;DHT22;28250;52.320;0.360;2023-05-07T10:10:48;19.40;99.90
42617;DHT22;28250;52.320;0.360;2023-05-07T10:13:21;19.70;99.90
42617;DHT22;28250;52.320;0.360;2023-05-07T10:15:51;19.60;99.90
42617;DHT22;28250;52.320;0.360;2023-05-07T10:18:20;19.60;99.90
42617;DHT22;28250;52.320;0.360;2023-05-07T10:21:10;19.70;99.90
42617;DHT22;28250;52.320;0.360;2023-05-07T10:23:38;19.80;99.90
42617;DHT22;28250;52.320;0.360;2023-05-07T10:26:07;20.50;99.90
42617;DHT22;28250;52.320;0.360;2023-05-07T10:28:38;20.50;99.90
42617;DHT22;28250;52.320;0.360;2023-05-07T10:34:11;20.20;99.90
42617;DHT22;28250;52.320;0.360;2023-05-07T10:36:41;20.30;99.90
42617;DHT22;28250;52.320;0.360;2023-05-07T10:39:08;20.30;99.90
42617;DHT22;28250;52.320;0.360;2023-05-07T10:41:36;20.50;99.90
42617;DHT22;28250;52.320;0.360;2023-05-07T10:44:03;20.60;99.90
42617;DHT22;28250;52.320;0.360;2023-05-07T10:46:32;21.00;99.90
42617;DHT22;28250;52.320;0.360;2023-05-07T10:49:09;21.20;99.90
42617;DHT22;28250;52.320;0.360;2023-05-07T10:51:42;21.10;99.90
42617;DHT22;28250;52.320;0.360;2023-05-07T10:54:23;21.30;99.90
42617;DHT22;28250;52.320;0.360;2023-05-07T10:57:32;21.30;99.90
42617;DHT22;28250;52.320;0.360;2023-05-07T11:05:28;21.90;99.90
42617;DHT22;28250;52.320;0.360;2023-05-07T11:08:18;21.90;99.90
42617;DHT22;28250;52.320;0.360;2023-05-07T11:11:02;22.30;99.90
42617;DHT22;28250;52.320;0.360;2023-05-07T11:13:45;22.90;99.90
42617;DHT22;28250;52.320;0.360;2023-05-07T11:16:28;23.60;99.90
42617;DHT22;28250;52.320;0.360;2023-05-07T11:19:51;23.30;99.90
42617;DHT22;28250;52.320;0.360;2023-05-07T11:22:53;22.00;99.90
42617;DHT22;28250;52.320;0.360;2023-05-07T11:25:36;21.00;99.90
42617;DHT22;28250;52.320;0.360;2023-05-07T11:28:10;21.20;99.90
42617;DHT22;28250;52.320;0.360;2023-05-07T11:30:42;22.20;99.90
42617;DHT22;28250;52.320;0.360;2023-05-07T11:33:10;22.10;99.90
42617;DHT22;28250;52.320;0.360;2023-05-07T11:35:38;21.70;99.90
42617;DHT22;28250;52.320;0.360;2023-05-07T11:38:08;20.50;99.90
42617;DHT22;28250;52.320;0.360;2023-05-07T11:40:35;20.60;99.90
42617;DHT22;28250;52.320;0.360;2023-05-07T11:43:14;20.70;99.90
42617;DHT22;28250;52.320;0.360;2023-05-07T11:45:40;20.10;99.90
42617;DHT22;28250;52.320;0.360;2023-05-07T11:48:06;20.00;99.90
42617;DHT22;28250;52.320;0.360;2023-05-07T11:50:32;19.60;99.90
42617;DHT22;28250;52.320;0.360;2023-05-07T11:52:58;20.20;99.90
42617;DHT22;28250;52.320;0.360;2023-05-07T11:55:24;20.40;99.90
42617;DHT22;28250;52.320;0.360;2023-05-07T11:57:51;20.90;99.90
42617;DHT22;28250;52.320;0.360;2023-05-07T12:00:18;20.90;99.90
42617;DHT22;28250;52.320;0.360;2023-05-07T12:02:45;20.50;99.90
42617;DHT22;28250;52.320;0.360;2023-05-07T12:05:12;20.50;99.90
42617;DHT22;28250;52.320;0.360;2023-05-07T12:07:38;19.50;99.90
42617;DHT22;28250;52.320;0.360;2023-05-07T12:10:05;19.90;99.90
42617;DHT22;28250;52.320;0.360;2023-05-07T12:12:40;19.70;99.90
42617;DHT22;28250;52.320;0.360;2023-05-07T12:15:08;19.80;99.90
42617;DHT22;28250;52.320;0.360;2023-05-07T12:17:34;20.50;99.90
42617;DHT22;28250;52.320;0.360;2023-05-07T12:20:01;21.10;99.90
42617;DHT22;28250;52.320;0.360;2023-05-07T12:22:27;20.70;99.90
42617;DHT22;28250;52.320;0.360;2023-05-07T12:24:57;20.50;99.90
42617;DHT22;28250;52.320;0.360;2023-05-07T12:27:25;19.90;99.90
42617;DHT22;28250;52.320;0.360;2023-05-07T12:29:51;19.90;99.90
42617;DHT22;28250;52.320;0.360;2023-05-07T12:32:19;20.30;99.90
42617;DHT22;28250;52.320;0.360;2023-05-07T12:34:50;20.50;99.90
42617;DHT22;28250;52.320;0.360;2023-05-07T12:37:26;20.80;99.90
42617;DHT22;28250;52.320;0.360;2023-05-07T12:40:11;20.60;99.90
42617;DHT22;28250;52.320;0.360;2023-05-07T12:42:39;20.40;99.90
42617;DHT22;28250;52.320;0.360;2023-05-07T12:45:10;20.20;99.90
42617;DHT22;28250;52.320;0.360;2023-05-07T12:47:44;20.00;99.90
42617;DHT22;28250;52.320;0.360;2023-05-07T12:50:12;20.10;99.90
42617;DHT22;28250;52.320;0.360;2023-05-07T12:52:39;20.20;99.90
42617;DHT22;28250;52.320;0.360;2023-05-07T12:55:07;20.20;99.90
42617;DHT22;28250;52.320;0.360;2023-05-07T12:58:00;20.20;99.90
42617;DHT22;28250;52.320;0.360;2023-05-07T13:00:37;20.90;99.90
42617;DHT22;28250;52.320;0.360;2023-05-07T13:03:04;20.60;99.90
42617;DHT22;28250;52.320;0.360;2023-05-07T13:05:31;20.50;99.90
42617;DHT22;28250;52.320;0.360;2023-05-07T13:07:58;20.10;99.90
42617;DHT22;28250;52.320;0.360;2023-05-07T13:10:25;19.90;99.90
42617;DHT22;28250;52.320;0.360;2023-05-07T13:12:52;19.80;99.90
42617;DHT22;28250;52.320;0.360;2023-05-07T13:15:18;20.50;99.90
42617;DHT22;28250;52.320;0.360;2023-05-07T13:17:44;21.70;99.90
42617;DHT22;28250;52.320;0.360;2023-05-07T13:20:11;21.30;99.90
42617;DHT22;28250;52.320;0.360;2023-05-07T13:22:39;20.80;99.90
42617;DHT22;28250;52.320;0.360;2023-05-07T13:25:05;21.20;99.90
42617;DHT22;28250;52.320;0.360;2023-05-07T13:27:32;21.00;99.90
42617;DHT22;28250;52.320;0.360;2023-05-07T13:30:01;21.60;99.90
42617;DHT22;28250;52.320;0.360;2023-05-07T13:32:27;21.20;99.90
42617;DHT22;28250;52.320;0.360;2023-05-07T13:34:53;21.50;99.90
42617;DHT22;28250;52.320;0.360;2023-05-07T13:37:19;22.30;99.90
42617;DHT22;28250;52.320;0.360;2023-05-07T13:39:45;22.70;99.90
42617;DHT22;28250;52.320;0.360;2023-05-07T13:42:11;22.90;99.90
42617;DHT22;28250;52.320;0.360;2023-05-07T13:44:37;22.50;99.90
42617;DHT22;28250;52.320;0.360;2023-05-07T13:47:03;22.90;99.90
42617;DHT22;28250;52.320;0.360;2023-05-07T13:49:29;22.80;99.90
42617;DHT22;28250;52.320;0.360;2023-05-07T13:51:55;22.70;99.90
42617;DHT22;28250;52.320;0.360;2023-05-07T13:54:22;22.50;99.90
42617;DHT22;28250;52.320;0.360;2023-05-07T13:56:48;22.60;99.90
42617;DHT22;28250;52.320;0.360;2023-05-07T13:59:14;21.80;99.90
42617;DHT22;28250;52.320;0.360;2023-05-07T14:01:40;21.40;99.90
42617;DHT22;28250;52.320;0.360;2023-05-07T14:04:06;21.00;99.90
42617;DHT22;28250;52.320;0.360;2023-05-07T14:06:33;21.30;99.90
42617;DHT22;28250;52.320;0.360;2023-05-07T14:08:59;21.30;99.90
42617;DHT22;28250;52.320;0.360;2023-05-07T14:11:25;21.50;99.90
42617;DHT22;28250;52.320;0.360;2023-05-07T14:13:51;22.50;99.90
42617;DHT22;28250;52.320;0.360;2023-05-07T14:16:17;22.80;99.90
42617;DHT22;28250;52.320;0.360;2023-05-07T14:18:43;22.80;99.90
42617;DHT22;28250;52.320;0.360;2023-05-07T14:21:09;23.10;99.90
42617;DHT22;28250;52.320;0.360;2023-05-07T14:23:35;22.80;99.90
42617;DHT22;28250;52.320;0.360;2023-05-07T14:26:01;22.00;99.90
42617;DHT22;28250;52.320;0.360;2023-05-07T14:28:27;21.10;99.90
42617;DHT22;28250;52.320;0.360;2023-05-07T14:30:53;21.60;99.90
42617;DHT22;28250;52.320;0.360;2023-05-07T14:33:20;22.00;99.90
42617;DHT22;28250;52.320;0.360;2023-05-07T14:35:46;22.50;99.90
42617;DHT22;28250;52.320;0.360;2023-05-07T14:38:14;22.50;99.90
42617;DHT22;28250;52.320;0.360;2023-05-07T14:40:41;22.40;99.90
42617;DHT22;28250;52.320;0.360;2023-05-07T14:43:07;22.60;99.90
42617;DHT22;28250;52.320;0.360;2023-05-07T14:45:33;22.60;99.90
42617;DHT22;28250;52.320;0.360;2023-05-07T14:47:59;21.80;99.90
42617;DHT22;28250;52.320;0.360;2023-05-07T14:50:25;22.10;99.90
42617;DHT22;28250;52.320;0.360;2023-05-07T14:52:51;22.30;99.90
42617;DHT22;28250;52.320;0.360;2023-05-07T14:55:17;23.00;99.90
42617;DHT22;28250;52.320;0.360;2023-05-07T14:57:43;23.50;99.90
42617;DHT22;28250;52.320;0.360;2023-05-07T15:00:09;23.70;99.90
42617;DHT22;28250;52.320;0.360;2023-05-07T15:02:36;21.80;99.90
42617;DHT22;28250;52.320;0.360;2023-05-07T15:05:02;21.60;99.90
42617;DHT22;28250;52.320;0.360;2023-05-07T15:07:29;21.80;99.90
42617;DHT22;28250;52.320;0.360;2023-05-07T15:09:55;22.00;99.90
42617;DHT22;28250;52.320;0.360;2023-05-07T15:12:21;22.20;99.90
42617;DHT22;28250;52.320;0.360;2023-05-07T15:14:47;22.40;99.90
42617;DHT22;28250;52.320;0.360;2023-05-07T15:17:13;21.60;99.90
42617;DHT22;28250;52.320;0.360;2023-05-07T15:19:40;21.00;99.90
42617;DHT22;28250;52.320;0.360;2023-05-07T15:22:06;21.50;99.90
42617;DHT22;28250;52.320;0.360;2023-05-07T15:24:34;22.30;99.90
42617;DHT22;28250;52.320;0.360;2023-05-07T15:27:00;21.80;99.90
42617;DHT22;28250;52.320;0.360;2023-05-07T15:29:28;22.10;99.90
42617;DHT22;28250;52.320;0.360;2023-05-07T15:31:56;22.60;99.90
42617;DHT22;28250;52.320;0.360;2023-05-07T15:34:22;22.90;99.90
42617;DHT22;28250;52.320;0.360;2023-05-07T15:36:49;22.60;99.90
42617;DHT22;28250;52.320;0.360;2023-05-07T15:39:16;22.70;99.90
42617;DHT22;28250;52.320;0.360;2023-05-07T15:41:42;22.70;99.90
42617;DHT22;28250;52.320;0.360;2023-05-07T15:44:08;21.80;99.90